createdAt,value
2019-01-06T00:03:47.521Z,1.80
2019-01-06T00:06:36.780Z,1.90
2019-01-06T00:12:05.814Z,1.80
2019-01-06T00:14:52.412Z,1.80
2019-01-06T00:17:43.097Z,1.80
2019-01-06T00:20:52.196Z,1.80
2019-01-06T00:26:28.297Z,1.80
2019-01-06T00:29:27.994Z,1.70
2019-01-06T00:32:37.405Z,1.70
2019-01-06T00:35:41.150Z,1.70
2019-01-06T00:38:40.865Z,1.60
2019-01-06T00:41:40.451Z,1.50
2019-01-06T00:44:36.018Z,1.50
2019-01-06T00:47:30.539Z,1.50
2019-01-06T00:56:06.871Z,1.50
2019-01-06T01:01:49.014Z,1.50
2019-01-06T01:04:42.866Z,1.50
2019-01-06T01:07:46.585Z,1.40
2019-01-06T01:10:36.023Z,1.40
2019-01-06T01:13:45.457Z,1.40
2019-01-06T01:16:35.188Z,1.40
2019-01-06T01:19:28.541Z,1.30
2019-01-06T01:22:17.485Z,1.30
2019-01-06T01:25:26.536Z,1.40
2019-01-06T01:28:32.809Z,1.40
2019-01-06T01:31:29.412Z,1.50
2019-01-06T01:34:18.634Z,1.50
2019-01-06T01:37:27.828Z,1.50
2019-01-06T01:40:27.891Z,1.50
2019-01-06T01:43:17.201Z,1.60
2019-01-06T01:46:17.292Z,1.60
2019-01-06T01:49:14.296Z,1.60
2019-01-06T01:54:56.003Z,1.60
2019-01-06T01:57:50.038Z,1.60
2019-01-06T02:03:22.044Z,1.60
2019-01-06T02:06:13.461Z,1.70
2019-01-06T02:09:03.224Z,1.60
2019-01-06T02:14:28.586Z,1.70
2019-01-06T02:17:34.649Z,1.60
2019-01-06T02:20:34.106Z,1.60
2019-01-06T02:23:23.538Z,1.60
2019-01-06T02:26:17.741Z,1.60
2019-01-06T02:31:53.233Z,1.50
2019-01-06T02:34:42.799Z,1.40
2019-01-06T02:37:38.480Z,1.40
2019-01-06T02:40:35.739Z,1.30
2019-01-06T02:46:26.008Z,1.40
2019-01-06T02:49:15.249Z,1.40
2019-01-06T02:52:06.007Z,1.30
2019-01-06T02:55:08.789Z,1.30
2019-01-06T02:57:57.906Z,1.30
2019-01-06T03:01:03.842Z,1.30
2019-01-06T03:04:08.033Z,1.30
2019-01-06T03:07:00.508Z,1.30
2019-01-06T03:09:51.288Z,1.40
2019-01-06T03:12:48.362Z,1.40
2019-01-06T03:15:38.016Z,1.30
2019-01-06T03:23:59.009Z,1.10
2019-01-06T03:26:48.536Z,1.00
2019-01-06T03:29:38.213Z,0.90
2019-01-06T03:32:29.158Z,0.80
2019-01-06T03:35:29.497Z,0.70
2019-01-06T03:38:25.280Z,0.60
2019-01-06T03:41:15.851Z,0.60
2019-01-06T03:44:15.679Z,0.70
2019-01-06T03:47:09.664Z,0.60
2019-01-06T03:49:59.192Z,0.50
2019-01-06T03:53:03.401Z,0.40
2019-01-06T03:56:00.407Z,0.40
2019-01-06T03:59:00.233Z,0.60
2019-01-06T04:02:00.858Z,0.70
2019-01-06T04:04:47.626Z,0.70
2019-01-06T04:07:35.597Z,0.70
2019-01-06T04:10:36.975Z,0.70
2019-01-06T04:13:26.440Z,0.70
2019-01-06T04:16:23.154Z,0.60
2019-01-06T04:19:24.478Z,0.50
2019-01-06T04:22:10.819Z,0.40
2019-01-06T04:25:00.154Z,0.40
2019-01-06T04:27:49.374Z,0.30
2019-01-06T04:30:40.166Z,0.30
2019-01-06T04:33:34.344Z,0.20
2019-01-06T04:36:28.382Z,0.20
2019-01-06T04:39:29.119Z,0.10
2019-01-06T04:42:18.551Z,0.00
2019-01-06T04:45:14.591Z,0.00
2019-01-06T04:48:04.708Z,0.10
2019-01-06T04:50:54.356Z,0.10
2019-01-06T04:53:51.790Z,0.30
2019-01-06T04:56:42.682Z,0.40
2019-01-06T04:59:32.510Z,0.50
2019-01-06T05:02:23.621Z,0.50
2019-01-06T05:05:30.788Z,0.60
2019-01-06T05:08:34.398Z,0.60
2019-01-06T05:11:24.270Z,0.70
2019-01-06T05:14:30.539Z,0.80
2019-01-06T05:17:20.619Z,0.80
2019-01-06T05:20:11.841Z,0.80
2019-01-06T05:23:09.047Z,0.90
2019-01-06T05:26:12.232Z,0.90
2019-01-06T05:29:18.252Z,0.90
2019-01-06T05:32:07.932Z,0.90
2019-01-06T05:34:52.485Z,1.00
2019-01-06T05:37:41.656Z,1.00
2019-01-06T05:40:29.590Z,1.00
2019-01-06T05:43:32.792Z,1.00
2019-01-06T05:49:01.078Z,0.80
2019-01-06T05:51:58.649Z,0.80
2019-01-06T05:54:57.414Z,0.80
2019-01-06T05:57:48.045Z,0.80
2019-01-06T06:00:41.516Z,0.80
2019-01-06T06:03:41.323Z,0.80
2019-01-06T06:06:37.195Z,0.80
2019-01-06T06:09:34.269Z,0.70
2019-01-06T06:12:25.507Z,0.60
2019-01-06T06:15:22.454Z,0.60
2019-01-06T06:18:19.201Z,0.60
2019-01-06T06:21:09.783Z,0.60
2019-01-06T06:24:00.717Z,0.60
2019-01-06T06:27:09.228Z,0.70
2019-01-06T06:30:07.253Z,0.70
2019-01-06T06:32:53.760Z,0.70
2019-01-06T06:35:47.371Z,0.80
2019-01-06T06:38:44.595Z,0.70
2019-01-06T06:41:38.865Z,0.70
2019-01-06T06:44:44.159Z,0.60
2019-01-06T06:47:33.327Z,0.60
2019-01-06T06:50:27.107Z,0.50
2019-01-06T06:53:16.574Z,0.50
2019-01-06T06:56:06.457Z,0.50
2019-01-06T06:58:55.736Z,0.50
2019-01-06T07:02:21.040Z,0.50
2019-01-06T07:05:13.848Z,0.60
2019-01-06T07:08:14.511Z,0.60
2019-01-06T07:11:06.294Z,0.60
2019-01-06T07:13:57.272Z,0.50
2019-01-06T07:19:45.935Z,0.30
2019-01-06T07:22:35.368Z,0.20
2019-01-06T07:25:28.986Z,0.20
2019-01-06T07:28:18.718Z,0.10
2019-01-06T07:31:18.679Z,0.10
2019-01-06T07:34:09.483Z,0.00
2019-01-06T07:37:00.411Z,0.00
2019-01-06T07:40:00.482Z,0.10
2019-01-06T07:42:50.095Z,0.10
2019-01-06T07:48:11.328Z,0.10
2019-01-06T07:53:36.240Z,0.10
2019-01-06T07:56:30.236Z,0.10
2019-01-06T07:59:18.822Z,0.10
2019-01-06T08:02:03.610Z,0.20
2019-01-06T08:05:08.582Z,0.20
2019-01-06T08:07:53.247Z,0.30
2019-01-06T08:10:45.704Z,0.40
2019-01-06T08:13:39.404Z,0.40
2019-01-06T08:16:29.440Z,0.50
2019-01-06T08:19:23.334Z,0.50
2019-01-06T08:22:32.138Z,0.60
2019-01-06T08:25:34.825Z,0.60
2019-01-06T08:28:28.695Z,0.60
2019-01-06T08:31:19.604Z,0.60
2019-01-06T08:34:14.305Z,0.60
2019-01-06T08:37:05.208Z,0.50
2019-01-06T08:39:58.631Z,0.50
2019-01-06T08:43:07.863Z,0.50
2019-01-06T08:46:14.237Z,0.50
2019-01-06T08:49:03.917Z,0.50
2019-01-06T08:52:03.882Z,0.40
2019-01-06T08:54:57.763Z,0.40
2019-01-06T08:58:03.924Z,0.40
2019-01-06T09:01:01.280Z,0.40
2019-01-06T09:03:50.806Z,0.40
2019-01-06T09:06:47.406Z,0.40
2019-01-06T09:09:45.749Z,0.40
2019-01-06T09:12:45.051Z,0.40
2019-01-06T09:15:49.914Z,0.40
2019-01-06T09:18:43.322Z,0.40
2019-01-06T09:21:33.367Z,0.50
2019-01-06T09:24:36.040Z,0.50
2019-01-06T09:27:27.212Z,0.50
2019-01-06T09:30:16.442Z,0.60
2019-01-06T09:36:01.316Z,0.60
2019-01-06T09:39:07.480Z,0.60
2019-01-06T09:42:04.532Z,0.60
2019-01-06T09:45:01.408Z,0.70
2019-01-06T09:50:24.859Z,0.70
2019-01-06T09:53:18.785Z,0.70
2019-01-06T09:56:18.760Z,0.70
2019-01-06T09:59:16.177Z,0.70
2019-01-06T10:02:06.146Z,0.70
2019-01-06T10:05:02.884Z,0.80
2019-01-06T10:07:56.623Z,0.80
2019-01-06T10:10:46.300Z,0.80
2019-01-06T10:13:40.178Z,0.90
2019-01-06T10:16:34.704Z,0.90
2019-01-06T10:19:39.023Z,0.90
2019-01-06T10:25:12.308Z,1.00
2019-01-06T10:30:54.388Z,1.00
2019-01-06T10:33:44.840Z,1.00
2019-01-06T10:36:39.472Z,0.90
2019-01-06T10:42:04.792Z,0.90
2019-01-06T10:47:59.667Z,1.00
2019-01-06T10:51:01.528Z,0.90
2019-01-06T10:54:01.445Z,0.90
2019-01-06T10:56:51.999Z,0.90
2019-01-06T10:59:46.238Z,0.80
2019-01-06T11:02:49.631Z,0.80
2019-01-06T11:08:29.087Z,0.80
2019-01-06T11:11:20.101Z,0.70
2019-01-06T11:14:23.356Z,0.70
2019-01-06T11:17:17.431Z,0.70
2019-01-06T11:20:11.359Z,0.70
2019-01-06T11:23:17.120Z,0.70
2019-01-06T11:26:14.473Z,0.70
2019-01-06T11:29:15.617Z,0.70
2019-01-06T11:32:10.104Z,0.70
2019-01-06T11:35:09.503Z,0.70
2019-01-06T11:37:58.890Z,0.60
2019-01-06T11:40:56.146Z,0.60
2019-01-06T11:46:27.719Z,0.70
2019-01-06T11:49:17.755Z,0.70
2019-01-06T11:52:07.434Z,0.70
2019-01-06T11:54:56.955Z,0.70
2019-01-06T11:58:03.200Z,0.70
2019-01-06T12:00:56.481Z,0.70
2019-01-06T12:03:41.551Z,0.60
2019-01-06T12:06:50.583Z,0.40
2019-01-06T12:09:41.004Z,0.30
2019-01-06T12:12:30.354Z,0.20
2019-01-06T12:15:19.629Z,0.00
2019-01-06T12:18:11.050Z,-0.10
2019-01-06T12:21:04.112Z,-0.20
2019-01-06T12:23:54.366Z,-0.30
2019-01-06T12:26:44.289Z,-0.30
2019-01-06T12:29:26.588Z,-0.40
2019-01-06T12:32:16.358Z,-0.50
2019-01-06T12:35:13.187Z,-0.60
2019-01-06T12:41:00.547Z,-0.70
2019-01-06T12:43:54.533Z,-0.80
2019-01-06T12:46:45.450Z,-0.80
2019-01-06T12:49:35.010Z,-0.90
2019-01-06T12:52:28.680Z,-0.90
2019-01-06T12:57:57.463Z,-1.10
2019-01-06T13:00:58.522Z,-1.10
2019-01-06T13:04:04.451Z,-1.20
2019-01-06T13:06:55.506Z,-1.30
2019-01-06T13:09:46.622Z,-1.30
2019-01-06T13:12:36.656Z,-1.40
2019-01-06T13:15:27.456Z,-1.50
2019-01-06T13:18:18.083Z,-1.50
2019-01-06T13:21:14.576Z,-1.50
2019-01-06T13:24:04.451Z,-1.60
2019-01-06T13:27:07.333Z,-1.50
2019-01-06T13:30:01.304Z,-1.50
2019-01-06T13:32:50.928Z,-1.50
2019-01-06T13:35:40.436Z,-1.50
2019-01-06T13:41:03.731Z,-1.50
2019-01-06T13:43:53.462Z,-1.50
2019-01-06T13:46:47.568Z,-1.60
2019-01-06T13:49:37.012Z,-1.60
2019-01-06T13:52:27.058Z,-1.60
2019-01-06T13:55:30.146Z,-1.60
2019-01-06T13:58:19.506Z,-1.60
2019-01-06T14:01:09.223Z,-1.50
2019-01-06T14:04:10.970Z,-1.50
2019-01-06T14:07:11.194Z,-1.60
2019-01-06T14:10:00.960Z,-1.50
2019-01-06T14:12:52.320Z,-1.60
2019-01-06T14:15:44.364Z,-1.60
2019-01-06T14:18:47.554Z,-1.50
2019-01-06T14:21:37.956Z,-1.50
2019-01-06T14:24:31.737Z,-1.50
2019-01-06T14:27:37.579Z,-1.50
2019-01-06T14:30:47.181Z,-1.60
2019-01-06T14:36:26.120Z,-1.50
2019-01-06T14:39:32.726Z,-1.50
2019-01-06T14:42:27.269Z,-1.50
2019-01-06T14:45:22.629Z,-1.60
2019-01-06T14:48:22.840Z,-1.70
2019-01-06T14:51:13.074Z,-1.80
2019-01-06T14:54:21.951Z,-1.90
2019-01-06T14:57:28.583Z,-1.90
2019-01-06T15:00:18.693Z,-2.00
2019-01-06T15:03:21.527Z,-2.20
2019-01-06T15:06:24.853Z,-2.20
2019-01-06T15:09:18.113Z,-2.10
2019-01-06T15:12:08.159Z,-2.10
2019-01-06T15:14:57.813Z,-2.20
2019-01-06T15:18:00.918Z,-2.20
2019-01-06T15:20:54.671Z,-2.20
2019-01-06T15:23:44.274Z,-2.20
2019-01-06T15:26:47.312Z,-2.10
2019-01-06T15:29:37.300Z,-2.10
2019-01-06T15:32:43.774Z,-2.10
2019-01-06T15:35:46.973Z,-2.10
2019-01-06T15:38:37.666Z,-2.00
2019-01-06T15:41:26.769Z,-1.90
2019-01-06T15:44:20.866Z,-1.90
2019-01-06T15:47:15.052Z,-2.00
2019-01-06T15:50:05.555Z,-1.90
2019-01-06T15:52:56.539Z,-2.00
2019-01-06T15:55:28.195Z,-1.90
2019-01-06T15:58:25.161Z,-1.90
2019-01-06T16:01:25.489Z,-2.00
2019-01-06T16:04:11.070Z,-2.00
2019-01-06T16:07:00.773Z,-2.20
2019-01-06T16:09:51.134Z,-2.20
2019-01-06T16:15:23.637Z,-2.10
2019-01-06T16:18:14.342Z,-2.20
2019-01-06T16:21:08.401Z,-2.30
2019-01-06T16:23:58.257Z,-2.30
2019-01-06T16:26:47.988Z,-2.20
2019-01-06T16:29:38.679Z,-2.30
2019-01-06T16:32:28.833Z,-2.20
2019-01-06T16:35:38.987Z,-2.20
2019-01-06T16:38:37.664Z,-2.20
2019-01-06T16:41:28.574Z,-2.20
2019-01-06T16:44:25.370Z,-2.30
2019-01-06T16:47:22.065Z,-2.30
2019-01-06T16:50:11.802Z,-2.20
2019-01-06T16:53:21.019Z,-2.00
2019-01-06T16:56:21.520Z,-1.80
2019-01-06T16:59:04.153Z,-1.90
2019-01-06T17:01:53.757Z,-1.90
2019-01-06T17:04:43.792Z,-1.80
2019-01-06T17:07:40.793Z,-1.70
2019-01-06T17:10:30.698Z,-1.80
2019-01-06T17:13:27.413Z,-1.80
2019-01-06T17:16:30.421Z,-2.00
2019-01-06T17:19:22.487Z,-1.90
2019-01-06T17:22:25.533Z,-1.90
2019-01-06T17:25:14.700Z,-1.80
2019-01-06T17:28:04.284Z,-1.80
2019-01-06T17:31:04.862Z,-1.70
2019-01-06T17:33:55.790Z,-1.80
2019-01-06T17:36:45.327Z,-1.80
2019-01-06T17:39:38.144Z,-1.90
2019-01-06T17:42:33.275Z,-1.90
2019-01-06T17:45:33.363Z,-2.00
2019-01-06T17:48:43.584Z,-2.20
2019-01-06T17:54:25.150Z,-2.50
2019-01-06T18:00:05.169Z,-2.50
2019-01-06T18:02:56.260Z,-2.50
2019-01-06T18:05:59.248Z,-2.50
2019-01-06T18:08:51.406Z,-2.50
2019-01-06T18:11:47.793Z,-2.40
2019-01-06T18:14:37.698Z,-2.40
2019-01-06T18:17:27.912Z,-2.40
2019-01-06T18:20:27.698Z,-2.50
2019-01-06T18:23:17.130Z,-2.50
2019-01-06T18:28:36.701Z,-2.50
2019-01-06T18:31:25.996Z,-2.40
2019-01-06T18:34:15.778Z,-2.40
2019-01-06T18:37:05.803Z,-2.60
2019-01-06T18:39:55.047Z,-2.80
2019-01-06T18:42:47.995Z,-2.90
2019-01-06T18:45:37.336Z,-3.00
2019-01-06T18:48:31.556Z,-3.10
2019-01-06T18:51:38.327Z,-3.20
2019-01-06T18:54:32.358Z,-3.30
2019-01-06T18:57:21.930Z,-3.00
2019-01-06T19:00:15.689Z,-2.80
2019-01-06T19:03:16.756Z,-3.00
2019-01-06T19:06:10.404Z,-3.10
2019-01-06T19:08:57.158Z,-3.20
2019-01-06T19:12:06.454Z,-3.40
2019-01-06T19:14:56.320Z,-3.70
2019-01-06T19:17:56.454Z,-3.80
2019-01-06T19:23:26.368Z,-3.50
2019-01-06T19:26:26.533Z,-3.60
2019-01-06T19:29:33.133Z,-3.60
2019-01-06T19:32:38.875Z,-3.70
2019-01-06T19:35:28.657Z,-3.60
2019-01-06T19:38:34.845Z,-3.60
2019-01-06T19:44:17.905Z,-3.90
2019-01-06T19:47:11.049Z,-3.90
2019-01-06T19:49:56.199Z,-3.80
2019-01-06T19:52:56.752Z,-3.80
2019-01-06T19:58:45.770Z,-3.80
2019-01-06T20:04:11.985Z,-4.20
2019-01-06T20:07:04.267Z,-4.40
2019-01-06T20:09:55.155Z,-4.70
2019-01-06T20:12:49.291Z,-4.80
2019-01-06T20:15:37.505Z,-4.90
2019-01-06T20:18:28.456Z,-5.00
2019-01-06T20:21:37.565Z,-5.10
2019-01-06T20:24:31.403Z,-5.20
2019-01-06T20:27:20.620Z,-5.30
2019-01-06T20:30:27.096Z,-5.40
2019-01-06T20:36:03.710Z,-5.60
2019-01-06T20:39:00.074Z,-5.70
2019-01-06T20:41:58.559Z,-5.80
2019-01-06T20:47:23.267Z,-5.80
2019-01-06T20:50:12.790Z,-5.90
2019-01-06T20:53:03.682Z,-5.90
2019-01-06T20:55:54.113Z,-5.90
2019-01-06T20:58:43.961Z,-5.90
2019-01-06T21:01:38.368Z,-6.00
2019-01-06T21:04:27.480Z,-6.10
2019-01-06T21:07:17.105Z,-6.20
2019-01-06T21:10:06.750Z,-6.20
2019-01-06T21:16:05.645Z,-6.20
2019-01-06T21:18:51.011Z,-6.30
2019-01-06T21:21:57.603Z,-6.50
2019-01-06T21:27:23.593Z,-6.60
2019-01-06T21:30:13.255Z,-6.70
2019-01-06T21:33:07.658Z,-6.70
2019-01-06T21:35:56.784Z,-6.90
2019-01-06T21:39:05.507Z,-7.00
2019-01-06T21:41:54.871Z,-6.90
2019-01-06T21:44:44.351Z,-7.00
2019-01-06T21:47:35.253Z,-7.00
2019-01-06T21:50:44.387Z,-7.10
2019-01-06T21:53:37.874Z,-7.10
2019-01-06T22:01:53.153Z,-7.30
2019-01-06T22:04:50.015Z,-7.30
2019-01-06T22:07:57.867Z,-7.40
2019-01-06T22:10:51.699Z,-7.40
2019-01-06T22:13:43.827Z,-7.60
2019-01-06T22:16:27.922Z,-7.60
2019-01-06T22:19:33.855Z,-7.70
2019-01-06T22:22:21.826Z,-7.70
2019-01-06T22:25:11.760Z,-7.70
2019-01-06T22:28:05.854Z,-7.70
2019-01-06T22:30:56.247Z,-7.70
2019-01-06T22:33:47.086Z,-7.70
2019-01-06T22:36:53.772Z,-7.70
2019-01-06T22:39:47.644Z,-7.80
2019-01-06T22:42:39.109Z,-7.90
2019-01-06T22:45:32.987Z,-8.00
2019-01-06T22:48:22.507Z,-8.00
2019-01-06T22:51:13.677Z,-8.00
2019-01-06T22:54:17.125Z,-8.10
2019-01-06T22:57:06.448Z,-8.00
2019-01-06T22:59:56.431Z,-8.00
2019-01-06T23:02:53.537Z,-8.00
2019-01-06T23:05:53.555Z,-7.90
2019-01-06T23:08:44.924Z,-8.00
2019-01-06T23:11:42.159Z,-8.00
2019-01-06T23:14:33.256Z,-8.10
2019-01-06T23:17:31.946Z,-8.20
2019-01-06T23:20:16.753Z,-8.30
2019-01-06T23:23:13.540Z,-8.20
2019-01-06T23:26:19.263Z,-8.30
2019-01-06T23:29:22.014Z,-8.30
2019-01-06T23:32:19.338Z,-8.30
2019-01-06T23:35:25.912Z,-8.30
2019-01-06T23:38:17.432Z,-8.40
2019-01-06T23:41:06.594Z,-8.40
2019-01-06T23:44:01.383Z,-8.40
2019-01-06T23:46:47.249Z,-8.40
2019-01-06T23:49:41.412Z,-8.50
2019-01-06T23:52:31.128Z,-8.60
2019-01-06T23:55:22.716Z,-8.60
2019-01-06T23:58:12.124Z,-8.60
